createdAt,value
2018-05-25T00:00:45.984Z,60.85
2018-05-25T00:01:45.894Z,60.75
2018-05-25T00:02:45.795Z,61.14
2018-05-25T00:03:45.703Z,61.14
2018-05-25T00:04:45.610Z,60.85
2018-05-25T00:05:45.507Z,61.04
2018-05-25T00:06:45.411Z,60.85
2018-05-25T00:07:45.322Z,61.71
2018-05-25T00:08:45.219Z,61.30
2018-05-25T00:09:45.127Z,62.19
2018-05-25T00:10:45.041Z,61.68
2018-05-25T00:11:44.937Z,62.07
2018-05-25T00:12:44.850Z,61.49
2018-05-25T00:13:44.759Z,61.68
2018-05-25T00:14:44.651Z,62.16
2018-05-25T00:15:44.562Z,61.97
2018-05-25T00:16:44.460Z,62.16
2018-05-25T00:17:44.368Z,62.45
2018-05-25T00:18:44.274Z,62.64
2018-05-25T00:19:44.169Z,62.45
2018-05-25T00:20:44.081Z,62.84
2018-05-25T00:21:43.989Z,62.74
2018-05-25T00:22:43.894Z,63.02
2018-05-25T00:23:43.804Z,63.22
2018-05-25T00:24:43.734Z,63.79
2018-05-25T00:25:43.601Z,63.41
2018-05-25T00:26:43.514Z,63.70
2018-05-25T00:27:43.424Z,63.67
2018-05-25T00:28:43.330Z,64.05
2018-05-25T00:29:43.227Z,63.86
2018-05-25T00:30:43.131Z,64.15
2018-05-25T00:31:43.028Z,63.96
2018-05-25T00:32:42.947Z,64.43
2018-05-25T00:33:42.852Z,64.63
2018-05-25T00:34:42.745Z,64.25
2018-05-25T00:35:42.657Z,64.25
2018-05-25T00:36:42.550Z,63.96
2018-05-25T00:37:42.458Z,64.15
2018-05-25T00:38:42.372Z,64.72
2018-05-25T00:39:42.269Z,64.63
2018-05-25T00:40:42.173Z,64.53
2018-05-25T00:41:42.083Z,64.43
2018-05-25T00:42:41.985Z,64.34
2018-05-25T00:43:41.892Z,64.25
2018-05-25T00:44:41.793Z,64.25
2018-05-25T00:45:41.701Z,64.53
2018-05-25T00:46:41.605Z,64.53
2018-05-25T00:47:41.503Z,65.01
2018-05-25T00:48:41.414Z,65.30
2018-05-25T00:49:41.323Z,64.92
2018-05-25T00:50:41.214Z,65.11
2018-05-25T00:51:41.127Z,64.82
2018-05-25T00:52:41.035Z,64.72
2018-05-25T00:53:40.932Z,65.11
2018-05-25T00:54:40.846Z,64.92
2018-05-25T00:55:40.744Z,65.11
2018-05-25T00:56:40.648Z,65.11
2018-05-25T00:57:40.558Z,65.69
2018-05-25T00:58:40.459Z,65.30
2018-05-25T00:59:40.370Z,65.59
2018-05-25T01:00:40.263Z,65.69
2018-05-25T01:01:40.173Z,65.69
2018-05-25T01:02:40.075Z,65.46
2018-05-25T01:03:39.972Z,65.94
2018-05-25T01:04:39.889Z,66.13
2018-05-25T01:05:39.797Z,66.16
2018-05-25T01:06:39.691Z,65.46
2018-05-25T01:07:39.599Z,66.03
2018-05-25T01:08:39.495Z,65.75
2018-05-25T01:09:39.406Z,66.13
2018-05-25T01:10:39.316Z,65.84
2018-05-25T01:11:39.214Z,66.61
2018-05-25T01:12:39.120Z,65.65
2018-05-25T01:13:39.029Z,66.13
2018-05-25T01:14:38.930Z,66.03
2018-05-25T01:15:38.853Z,66.23
2018-05-25T01:16:38.737Z,66.03
2018-05-25T01:17:38.643Z,65.84
2018-05-25T01:18:38.798Z,65.84
2018-05-25T01:19:38.444Z,66.33
2018-05-25T01:20:38.361Z,66.42
2018-05-25T01:21:38.258Z,66.80
2018-05-25T01:22:38.162Z,66.61
2018-05-25T01:23:38.071Z,66.80
2018-05-25T01:24:37.966Z,66.33
2018-05-25T01:25:37.874Z,66.42
2018-05-25T01:26:37.777Z,66.61
2018-05-25T01:27:37.685Z,66.52
2018-05-25T01:28:37.889Z,66.52
2018-05-25T01:29:37.486Z,66.42
2018-05-25T01:30:37.400Z,66.52
2018-05-25T01:31:37.299Z,66.90
2018-05-25T01:32:37.209Z,66.80
2018-05-25T01:33:37.118Z,66.80
2018-05-25T01:34:37.013Z,67.19
2018-05-25T01:35:36.921Z,66.90
2018-05-25T01:36:36.819Z,67.00
2018-05-25T01:37:36.755Z,67.00
2018-05-25T01:38:36.634Z,66.90
2018-05-25T01:39:36.529Z,67.16
2018-05-25T01:40:36.440Z,67.83
2018-05-25T01:41:36.348Z,67.57
2018-05-25T01:42:36.251Z,67.35
2018-05-25T01:43:36.159Z,67.63
2018-05-25T01:44:36.052Z,67.54
2018-05-25T01:45:35.960Z,67.73
2018-05-25T01:46:35.863Z,67.44
2018-05-25T01:47:35.771Z,67.92
2018-05-25T01:48:35.977Z,67.54
2018-05-25T01:49:35.573Z,67.92
2018-05-25T01:50:35.480Z,67.44
2018-05-25T01:51:35.376Z,67.73
2018-05-25T01:52:35.291Z,67.73
2018-05-25T01:53:35.201Z,67.73
2018-05-25T01:54:35.099Z,68.59
2018-05-25T01:55:35.002Z,68.50
2018-05-25T01:56:34.899Z,68.50
2018-05-25T01:57:34.807Z,68.50
2018-05-25T01:58:35.019Z,68.30
2018-05-25T01:59:34.615Z,67.92
2018-05-25T02:00:34.522Z,67.63
2018-05-25T02:01:34.419Z,67.44
2018-05-25T02:02:34.331Z,67.63
2018-05-25T02:03:34.229Z,68.30
2018-05-25T02:04:34.140Z,68.30
2018-05-25T02:05:34.048Z,68.50
2018-05-25T02:06:33.941Z,68.59
2018-05-25T02:07:33.850Z,68.50
2018-05-25T02:08:34.049Z,68.50
2018-05-25T02:09:33.658Z,68.88
2018-05-25T02:10:33.564Z,68.02
2018-05-25T02:11:33.460Z,67.92
2018-05-25T02:12:33.373Z,68.12
2018-05-25T02:13:33.269Z,67.92
2018-05-25T02:14:33.183Z,68.12
2018-05-25T02:15:33.078Z,68.30
2018-05-25T02:16:32.988Z,68.40
2018-05-25T02:17:32.896Z,68.59
2018-05-25T02:18:32.848Z,68.69
2018-05-25T02:19:32.699Z,68.59
2018-05-25T02:20:32.592Z,68.69
2018-05-25T02:21:32.502Z,68.12
2018-05-25T02:22:32.415Z,68.69
2018-05-25T02:23:32.312Z,68.30
2018-05-25T02:24:32.219Z,68.30
2018-05-25T02:25:32.116Z,68.12
2018-05-25T02:26:32.029Z,68.69
2018-05-25T02:27:31.938Z,68.50
2018-05-25T02:28:32.083Z,68.30
2018-05-25T02:29:31.741Z,68.50
2018-05-25T02:30:31.634Z,68.30
2018-05-25T02:31:31.545Z,68.30
2018-05-25T02:32:31.445Z,68.40
2018-05-25T02:33:31.354Z,68.30
2018-05-25T02:34:31.246Z,68.30
2018-05-25T02:35:31.156Z,68.98
2018-05-25T02:36:31.066Z,68.69
2018-05-25T02:37:30.963Z,68.69
2018-05-25T02:38:30.877Z,69.42
2018-05-25T02:39:30.775Z,69.07
2018-05-25T02:40:30.677Z,68.40
2018-05-25T02:41:30.587Z,68.50
2018-05-25T02:42:30.488Z,68.30
2018-05-25T02:43:30.388Z,68.21
2018-05-25T02:44:30.294Z,68.40
2018-05-25T02:45:30.204Z,68.50
2018-05-25T02:46:30.099Z,68.98
2018-05-25T02:47:30.005Z,68.79
2018-05-25T02:48:29.906Z,68.75
2018-05-25T02:49:29.819Z,68.56
2018-05-25T02:50:29.720Z,69.04
2018-05-25T02:51:29.617Z,68.95
2018-05-25T02:52:29.525Z,68.75
2018-05-25T02:53:29.422Z,68.66
2018-05-25T02:54:29.338Z,68.75
2018-05-25T02:55:29.231Z,69.04
2018-05-25T02:56:29.138Z,68.56
2018-05-25T02:57:29.036Z,69.23
2018-05-25T02:58:28.948Z,69.23
2018-05-25T02:59:28.847Z,69.33
2018-05-25T03:00:28.753Z,69.04
2018-05-25T03:01:28.661Z,68.95
2018-05-25T03:02:28.554Z,69.04
2018-05-25T03:03:28.464Z,68.75
2018-05-25T03:04:28.365Z,69.23
2018-05-25T03:05:28.273Z,69.23
2018-05-25T03:06:28.166Z,69.13
2018-05-25T03:07:28.076Z,69.04
2018-05-25T03:08:27.986Z,69.04
2018-05-25T03:09:27.886Z,69.04
2018-05-25T03:10:27.799Z,69.33
2018-05-25T03:11:27.693Z,69.81
2018-05-25T03:12:27.597Z,69.81
2018-05-25T03:13:27.495Z,69.71
2018-05-25T03:14:27.407Z,69.52
2018-05-25T03:15:27.302Z,69.62
2018-05-25T03:16:27.213Z,69.81
2018-05-25T03:17:27.122Z,69.90
2018-05-25T03:18:27.016Z,69.81
2018-05-25T03:19:26.924Z,69.90
2018-05-25T03:20:26.823Z,69.62
2018-05-25T03:21:26.732Z,69.81
2018-05-25T03:22:26.624Z,70.09
2018-05-25T03:23:26.533Z,69.87
2018-05-25T03:24:26.432Z,69.81
2018-05-25T03:25:26.342Z,69.58
2018-05-25T03:26:26.254Z,70.29
2018-05-25T03:27:26.151Z,70.38
2018-05-25T03:28:26.056Z,70.09
2018-05-25T03:29:25.955Z,70.25
2018-05-25T03:30:25.865Z,70.06
2018-05-25T03:31:25.774Z,70.25
2018-05-25T03:32:25.673Z,69.58
2018-05-25T03:33:25.570Z,69.23
2018-05-25T03:34:25.473Z,69.23
2018-05-25T03:35:25.371Z,68.95
2018-05-25T03:36:25.284Z,69.13
2018-05-25T03:37:25.196Z,69.33
2018-05-25T03:38:25.086Z,69.13
2018-05-25T03:39:25.000Z,68.95
2018-05-25T03:40:24.892Z,68.75
2018-05-25T03:41:24.798Z,68.46
2018-05-25T03:42:24.699Z,68.27
2018-05-25T03:43:24.859Z,68.46
2018-05-25T03:44:24.505Z,68.18
2018-05-25T03:45:24.412Z,68.37
2018-05-25T03:46:24.326Z,68.37
2018-05-25T03:47:24.223Z,68.37
2018-05-25T03:48:24.129Z,68.27
2018-05-25T03:49:24.026Z,67.69
2018-05-25T03:50:23.932Z,67.79
2018-05-25T03:51:23.830Z,67.16
2018-05-25T03:52:23.741Z,67.06
2018-05-25T03:53:23.644Z,66.58
2018-05-25T03:54:23.544Z,66.49
2018-05-25T03:55:23.453Z,66.96
2018-05-25T03:56:23.351Z,66.67
2018-05-25T03:57:23.261Z,66.39
2018-05-25T03:58:23.162Z,66.49
2018-05-25T03:59:23.070Z,66.19
2018-05-25T04:00:22.965Z,66.49
2018-05-25T04:01:22.871Z,66.49
2018-05-25T04:02:22.783Z,66.29
2018-05-25T04:03:22.680Z,66.49
2018-05-25T04:04:22.592Z,66.67
2018-05-25T04:05:22.489Z,66.39
2018-05-25T04:06:22.393Z,66.39
2018-05-25T04:07:22.291Z,66.10
2018-05-25T04:08:22.204Z,66.10
2018-05-25T04:09:22.112Z,65.62
2018-05-25T04:10:22.005Z,65.52
2018-05-25T04:11:21.915Z,64.89
2018-05-25T04:12:21.810Z,64.50
2018-05-25T04:13:21.718Z,64.50
2018-05-25T04:14:21.646Z,64.89
2018-05-25T04:15:21.528Z,64.50
2018-05-25T04:16:21.436Z,64.22
2018-05-25T04:17:21.332Z,64.50
2018-05-25T04:18:21.245Z,64.40
2018-05-25T04:19:21.155Z,64.40
2018-05-25T04:20:21.049Z,64.31
2018-05-25T04:21:20.959Z,64.40
2018-05-25T04:22:20.863Z,64.50
2018-05-25T04:23:20.760Z,64.47
2018-05-25T04:24:20.670Z,64.28
2018-05-25T04:25:20.569Z,64.40
2018-05-25T04:26:20.492Z,64.40
2018-05-25T04:27:20.389Z,63.73
2018-05-25T04:28:20.288Z,63.67
2018-05-25T04:29:20.200Z,62.42
2018-05-25T04:30:20.102Z,62.55
2018-05-25T04:31:19.999Z,62.26
2018-05-25T04:32:19.909Z,60.66
2018-05-25T04:33:19.811Z,59.72
2018-05-25T04:34:19.712Z,58.79
2018-05-25T04:35:19.624Z,58.31
2018-05-25T04:36:19.521Z,58.12
2018-05-25T04:37:19.429Z,57.18
2018-05-25T04:38:19.341Z,56.80
2018-05-25T04:39:19.252Z,56.22
2018-05-25T04:40:19.144Z,55.96
2018-05-25T04:41:19.052Z,55.00
2018-05-25T04:42:18.967Z,55.65
2018-05-25T04:43:19.150Z,55.74
2018-05-25T04:44:18.770Z,55.65
2018-05-25T04:45:18.680Z,56.48
2018-05-25T04:46:18.584Z,57.15
2018-05-25T04:47:18.494Z,56.80
2018-05-25T04:48:18.409Z,56.10
2018-05-25T04:49:18.305Z,55.67
2018-05-25T04:50:18.211Z,54.93
2018-05-25T04:51:18.119Z,53.67
2018-05-25T04:52:18.032Z,54.16
2018-05-25T04:53:17.935Z,53.03
2018-05-25T04:54:17.839Z,52.47
2018-05-25T04:55:17.746Z,51.61
2018-05-25T04:56:17.650Z,51.44
2018-05-25T04:57:17.562Z,50.59
2018-05-25T04:58:17.473Z,49.73
2018-05-25T04:59:17.387Z,50.38
2018-05-25T05:00:17.294Z,50.57
2018-05-25T05:01:17.204Z,50.31
2018-05-25T05:02:17.110Z,49.82
2018-05-25T05:03:17.007Z,49.90
2018-05-25T05:04:16.959Z,50.09
2018-05-25T05:05:16.840Z,49.90
2018-05-25T05:06:16.732Z,50.18
2018-05-25T05:07:16.639Z,50.90
2018-05-25T05:08:16.551Z,52.97
2018-05-25T05:09:16.474Z,53.94
2018-05-25T05:10:16.375Z,53.77
2018-05-25T05:11:16.282Z,53.00
2018-05-25T05:12:16.188Z,52.81
2018-05-25T05:13:16.098Z,52.83
2018-05-25T05:14:16.011Z,52.91
2018-05-25T05:15:15.921Z,53.19
2018-05-25T05:16:15.827Z,52.55
2018-05-25T05:17:15.735Z,52.25
2018-05-25T05:18:15.893Z,52.06
2018-05-25T05:19:15.550Z,51.41
2018-05-25T05:20:15.466Z,50.84
2018-05-25T05:21:15.382Z,49.96
2018-05-25T05:22:15.280Z,51.12
2018-05-25T05:23:15.188Z,51.48
2018-05-25T05:24:15.100Z,51.22
2018-05-25T05:25:15.005Z,50.28
2018-05-25T05:26:14.920Z,50.93
2018-05-25T05:27:14.827Z,51.25
2018-05-25T05:28:14.735Z,49.80
2018-05-25T05:29:14.645Z,49.82
2018-05-25T05:30:14.557Z,49.82
2018-05-25T05:31:14.466Z,50.18
2018-05-25T05:32:14.375Z,49.82
2018-05-25T05:33:14.283Z,49.27
2018-05-25T05:34:14.189Z,48.95
2018-05-25T05:35:14.098Z,49.24
2018-05-25T05:36:14.024Z,49.82
2018-05-25T05:37:13.934Z,48.39
2018-05-25T05:38:13.839Z,48.39
2018-05-25T05:39:13.749Z,49.44
2018-05-25T05:40:13.655Z,50.18
2018-05-25T05:41:13.566Z,49.82
2018-05-25T05:42:13.478Z,50.45
2018-05-25T05:43:13.388Z,49.99
2018-05-25T05:44:13.291Z,51.05
2018-05-25T05:45:13.214Z,49.90
2018-05-25T05:46:13.120Z,50.09
2018-05-25T05:47:13.037Z,50.28
2018-05-25T05:48:12.948Z,50.35
2018-05-25T05:49:12.864Z,50.21
2018-05-25T05:50:12.761Z,49.73
2018-05-25T05:51:12.676Z,49.44
2018-05-25T05:52:12.583Z,49.37
2018-05-25T05:53:12.491Z,48.81
2018-05-25T05:54:12.399Z,47.84
2018-05-25T05:55:12.305Z,48.42
2018-05-25T05:56:12.217Z,47.60
2018-05-25T05:57:12.139Z,46.73
2018-05-25T05:58:12.053Z,47.48
2018-05-25T05:59:11.962Z,46.42
2018-05-25T06:00:11.866Z,46.70
2018-05-25T06:01:11.776Z,46.80
2018-05-25T06:02:11.688Z,45.88
2018-05-25T06:03:11.610Z,45.20
2018-05-25T06:04:11.518Z,46.25
2018-05-25T06:05:11.426Z,45.76
2018-05-25T06:06:11.333Z,46.42
2018-05-25T06:07:11.242Z,47.19
2018-05-25T06:08:11.157Z,46.53
2018-05-25T06:09:11.067Z,46.15
2018-05-25T06:10:10.983Z,46.26
2018-05-25T06:11:10.898Z,45.95
2018-05-25T06:12:10.799Z,46.34
2018-05-25T06:13:10.709Z,46.15
2018-05-25T06:14:10.634Z,46.34
2018-05-25T06:15:10.544Z,45.57
2018-05-25T06:16:10.449Z,46.05
2018-05-25T06:17:10.357Z,45.66
2018-05-25T06:18:10.283Z,46.05
2018-05-25T06:19:10.194Z,46.15
2018-05-25T06:20:10.104Z,46.80
2018-05-25T06:21:10.019Z,47.60
2018-05-25T06:22:09.917Z,47.58
2018-05-25T06:23:09.828Z,46.80
2018-05-25T06:24:09.751Z,46.34
2018-05-25T06:25:09.660Z,47.00
2018-05-25T06:26:09.566Z,46.05
2018-05-25T06:27:09.477Z,46.53
2018-05-25T06:28:09.403Z,46.26
2018-05-25T06:29:09.308Z,45.01
2018-05-25T06:30:09.222Z,45.86
2018-05-25T06:31:09.132Z,46.36
2018-05-25T06:32:09.052Z,45.71
2018-05-25T06:33:08.961Z,44.67
2018-05-25T06:34:08.865Z,44.74
2018-05-25T06:35:08.785Z,45.03
2018-05-25T06:36:08.695Z,44.76
2018-05-25T06:37:08.605Z,43.96
2018-05-25T06:38:08.526Z,44.59
2018-05-25T06:39:08.434Z,43.04
2018-05-25T06:40:08.344Z,42.29
2018-05-25T06:41:08.252Z,42.65
2018-05-25T06:42:08.188Z,42.67
2018-05-25T06:43:08.090Z,42.65
2018-05-25T06:44:07.993Z,42.57
2018-05-25T06:45:07.927Z,42.02
2018-05-25T06:46:07.824Z,42.02
2018-05-25T06:47:07.733Z,41.51
2018-05-25T06:48:07.656Z,42.40
2018-05-25T06:49:07.567Z,41.41
2018-05-25T06:50:07.473Z,42.48
2018-05-25T06:51:07.398Z,42.34
2018-05-25T06:52:07.307Z,42.75
2018-05-25T06:53:07.212Z,42.09
2018-05-25T06:54:07.135Z,41.61
2018-05-25T06:55:07.045Z,41.82
2018-05-25T06:56:06.954Z,41.18
2018-05-25T06:57:06.935Z,40.23
2018-05-25T06:58:06.796Z,38.89
2018-05-25T06:59:06.707Z,39.82
2018-05-25T07:00:06.628Z,40.85
2018-05-25T07:01:06.527Z,41.80
2018-05-25T07:02:06.446Z,41.45
2018-05-25T07:03:06.355Z,40.52
2018-05-25T07:04:06.277Z,39.29
2018-05-25T07:05:06.187Z,38.62
2018-05-25T07:06:06.098Z,38.67
2018-05-25T07:07:06.038Z,39.18
2018-05-25T07:08:05.926Z,38.95
2018-05-25T07:09:05.849Z,40.46
2018-05-25T07:10:05.757Z,41.33
2018-05-25T07:11:05.680Z,40.79
2018-05-25T07:12:05.590Z,39.94
2018-05-25T07:13:05.510Z,39.28
2018-05-25T07:14:05.419Z,39.08
2018-05-25T07:15:05.329Z,39.90
2018-05-25T07:16:05.251Z,41.26
2018-05-25T07:17:05.206Z,41.28
2018-05-25T07:18:05.095Z,40.69
2018-05-25T07:19:04.990Z,40.33
2018-05-25T07:20:04.917Z,39.94
2018-05-25T07:21:04.820Z,40.01
2018-05-25T07:22:04.742Z,39.72
2018-05-25T07:23:04.906Z,40.03
2018-05-25T07:24:04.575Z,40.26
2018-05-25T07:25:04.485Z,41.33
2018-05-25T07:26:04.404Z,41.08
2018-05-25T07:27:04.314Z,39.82
2018-05-25T07:28:04.236Z,40.69
2018-05-25T07:29:04.144Z,40.26
2018-05-25T07:30:04.066Z,41.82
2018-05-25T07:31:03.976Z,42.09
2018-05-25T07:32:03.886Z,41.43
2018-05-25T07:33:03.806Z,41.05
2018-05-25T07:34:03.717Z,41.41
2018-05-25T07:35:03.637Z,41.80
2018-05-25T07:36:03.547Z,41.31
2018-05-25T07:37:03.467Z,41.99
2018-05-25T07:38:03.378Z,41.38
2018-05-25T07:39:03.321Z,40.21
2018-05-25T07:40:03.208Z,39.80
2018-05-25T07:41:03.129Z,40.85
2018-05-25T07:42:03.039Z,40.58
2018-05-25T07:43:02.962Z,41.36
2018-05-25T07:44:02.869Z,40.33
2018-05-25T07:45:02.794Z,38.79
2018-05-25T07:46:02.700Z,38.62
2018-05-25T07:47:02.611Z,38.79
2018-05-25T07:48:02.535Z,38.87
2018-05-25T07:49:02.442Z,39.28
2018-05-25T07:50:02.363Z,37.92
2018-05-25T07:51:02.278Z,38.70
2018-05-25T07:52:02.198Z,38.79
2018-05-25T07:53:02.112Z,39.18
2018-05-25T07:54:02.082Z,38.70
2018-05-25T07:55:01.936Z,38.81
2018-05-25T07:56:01.854Z,38.79
2018-05-25T07:57:01.764Z,38.81
2018-05-25T07:58:01.987Z,38.05
2018-05-25T07:59:01.595Z,37.31
2018-05-25T08:00:01.517Z,37.00
2018-05-25T08:01:01.426Z,37.74
2018-05-25T08:02:01.351Z,38.44
2018-05-25T08:03:01.256Z,38.77
2018-05-25T08:04:01.178Z,38.98
2018-05-25T08:05:01.088Z,38.87
2018-05-25T08:06:00.999Z,38.70
2018-05-25T08:07:00.918Z,39.26
2018-05-25T08:08:00.829Z,39.65
2018-05-25T08:09:00.751Z,39.72
2018-05-25T08:10:00.658Z,39.72
2018-05-25T08:11:00.568Z,40.85
2018-05-25T08:12:00.537Z,41.45
2018-05-25T08:13:00.398Z,40.89
2018-05-25T08:14:00.308Z,40.50
2018-05-25T08:15:00.218Z,40.60
2018-05-25T08:16:00.139Z,41.16
2018-05-25T08:17:00.048Z,41.06
2018-05-25T08:18:00.206Z,41.88
2018-05-25T08:18:59.867Z,42.75
2018-05-25T08:19:59.788Z,43.35
2018-05-25T08:20:59.696Z,42.55
2018-05-25T08:21:59.668Z,42.86
2018-05-25T08:22:59.519Z,42.65
2018-05-25T08:23:59.425Z,42.72
2018-05-25T08:24:59.347Z,43.70
2018-05-25T08:25:59.256Z,43.72
2018-05-25T08:26:59.165Z,43.08
2018-05-25T08:27:59.090Z,42.11
2018-05-25T08:28:58.983Z,41.64
2018-05-25T08:29:58.892Z,40.50
2018-05-25T08:30:58.802Z,40.11
2018-05-25T08:31:58.710Z,39.75
2018-05-25T08:32:58.620Z,39.47
2018-05-25T08:33:58.529Z,39.28
2018-05-25T08:34:58.439Z,38.64
2018-05-25T08:35:58.347Z,38.75
2018-05-25T08:36:58.268Z,37.35
2018-05-25T08:37:58.245Z,38.67
2018-05-25T08:38:58.086Z,39.75
2018-05-25T08:39:57.997Z,39.37
2018-05-25T08:40:57.905Z,39.03
2018-05-25T08:41:57.816Z,38.64
2018-05-25T08:42:57.725Z,37.39
2018-05-25T08:43:57.634Z,36.90
2018-05-25T08:44:57.542Z,37.66
2018-05-25T08:45:57.468Z,37.60
2018-05-25T08:46:57.373Z,36.76
2018-05-25T08:47:57.281Z,35.78
2018-05-25T08:48:57.192Z,35.10
2018-05-25T08:49:57.113Z,34.91
2018-05-25T08:50:57.022Z,34.83
2018-05-25T08:51:56.932Z,35.63
2018-05-25T08:52:56.854Z,37.46
2018-05-25T08:53:56.763Z,37.74
2018-05-25T08:54:56.671Z,38.11
2018-05-25T08:55:56.593Z,38.03
2018-05-25T08:56:56.505Z,37.08
2018-05-25T08:57:56.432Z,36.63
2018-05-25T08:58:56.334Z,36.69
2018-05-25T08:59:56.255Z,37.39
2018-05-25T09:00:56.164Z,36.32
2018-05-25T09:01:56.085Z,36.04
2018-05-25T09:02:55.995Z,36.32
2018-05-25T09:03:55.916Z,36.59
2018-05-25T09:04:55.825Z,36.14
2018-05-25T09:05:55.749Z,35.28
2018-05-25T09:06:55.656Z,34.32
2018-05-25T09:07:55.579Z,34.59
2018-05-25T09:08:55.501Z,35.03
2018-05-25T09:09:55.408Z,35.99
2018-05-25T09:10:55.330Z,36.38
2018-05-25T09:11:55.240Z,36.87
2018-05-25T09:12:55.162Z,36.71
2018-05-25T09:13:55.086Z,35.47
2018-05-25T09:14:54.992Z,35.36
2018-05-25T09:15:54.913Z,34.97
2018-05-25T09:16:54.835Z,35.53
2018-05-25T09:17:55.007Z,35.61
2018-05-25T09:18:54.666Z,35.50
2018-05-25T09:19:54.588Z,36.20
2018-05-25T09:20:54.497Z,35.91
2018-05-25T09:21:54.425Z,35.34
2018-05-25T09:22:54.353Z,35.25
2018-05-25T09:23:54.251Z,35.16
2018-05-25T09:24:54.171Z,35.05
2018-05-25T09:25:54.094Z,35.63
2018-05-25T09:26:54.003Z,35.73
2018-05-25T09:27:53.924Z,35.53
2018-05-25T09:28:53.845Z,35.13
2018-05-25T09:29:53.756Z,35.15
2018-05-25T09:30:53.694Z,35.16
2018-05-25T09:31:53.599Z,34.31
2018-05-25T09:32:53.508Z,33.73
2018-05-25T09:33:53.429Z,33.79
2018-05-25T09:34:53.351Z,32.92
2018-05-25T09:35:53.286Z,32.43
2018-05-25T09:36:53.182Z,32.26
2018-05-25T09:37:53.104Z,31.92
2018-05-25T09:38:53.026Z,32.48
2018-05-25T09:39:52.938Z,33.36
2018-05-25T09:40:52.856Z,34.01
2018-05-25T09:41:52.779Z,34.50
2018-05-25T09:42:52.700Z,34.05
2018-05-25T09:43:52.621Z,33.67
2018-05-25T09:44:52.546Z,32.99
2018-05-25T09:45:52.453Z,33.92
2018-05-25T09:46:52.375Z,35.70
2018-05-25T09:47:52.296Z,35.93
2018-05-25T09:48:52.257Z,34.78
2018-05-25T09:49:52.125Z,34.88
2018-05-25T09:50:52.048Z,33.65
2018-05-25T09:51:51.983Z,33.33
2018-05-25T09:52:51.891Z,34.12
2018-05-25T09:53:51.801Z,33.43
2018-05-25T09:54:51.724Z,33.85
2018-05-25T09:55:51.645Z,32.87
2018-05-25T09:56:51.567Z,32.39
2018-05-25T09:57:51.726Z,32.58
2018-05-25T09:58:51.396Z,32.50
2018-05-25T09:59:51.318Z,32.04
2018-05-25T10:00:51.240Z,32.11
2018-05-25T10:01:51.161Z,31.80
2018-05-25T10:02:51.074Z,31.13
2018-05-25T10:03:50.997Z,30.93
2018-05-25T10:04:50.914Z,30.57
2018-05-25T10:05:50.837Z,31.01
2018-05-25T10:06:50.759Z,30.91
2018-05-25T10:07:50.681Z,31.70
2018-05-25T10:08:50.589Z,31.02
2018-05-25T10:09:50.510Z,30.94
2018-05-25T10:10:50.432Z,30.27
2018-05-25T10:11:50.354Z,30.27
2018-05-25T10:12:50.275Z,30.69
2018-05-25T10:13:50.197Z,32.19
2018-05-25T10:14:50.118Z,33.12
2018-05-25T10:15:50.039Z,34.16
2018-05-25T10:16:49.951Z,35.41
2018-05-25T10:17:50.127Z,35.13
2018-05-25T10:18:49.794Z,33.64
2018-05-25T10:19:49.716Z,31.88
2018-05-25T10:20:49.637Z,31.92
2018-05-25T10:21:49.547Z,30.55
2018-05-25T10:22:49.466Z,32.05
2018-05-25T10:23:49.388Z,34.05
2018-05-25T10:24:49.310Z,34.24
2018-05-25T10:25:49.232Z,32.35
2018-05-25T10:26:49.142Z,32.28
2018-05-25T10:27:49.063Z,32.62
2018-05-25T10:28:49.000Z,32.84
2018-05-25T10:29:48.907Z,32.09
2018-05-25T10:30:48.828Z,32.06
2018-05-25T10:31:48.738Z,32.94
2018-05-25T10:32:48.659Z,32.29
2018-05-25T10:33:48.579Z,30.65
2018-05-25T10:34:48.502Z,30.83
2018-05-25T10:35:48.424Z,31.96
2018-05-25T10:36:48.334Z,32.37
2018-05-25T10:37:48.256Z,30.63
2018-05-25T10:38:48.177Z,30.45
2018-05-25T10:39:48.099Z,30.34
2018-05-25T10:40:48.021Z,30.63
2018-05-25T10:41:47.998Z,30.08
2018-05-25T10:42:47.864Z,29.11
2018-05-25T10:43:47.784Z,30.26
2018-05-25T10:44:47.694Z,31.09
2018-05-25T10:45:47.616Z,32.50
2018-05-25T10:46:47.540Z,32.23
2018-05-25T10:47:47.462Z,32.24
2018-05-25T10:48:47.380Z,31.96
2018-05-25T10:49:47.302Z,31.02
2018-05-25T10:50:47.224Z,30.42
2018-05-25T10:51:47.134Z,31.12
2018-05-25T10:52:47.056Z,31.07
2018-05-25T10:53:46.978Z,32.59
2018-05-25T10:54:46.899Z,33.83
2018-05-25T10:55:46.821Z,32.24
2018-05-25T10:56:46.730Z,30.71
2018-05-25T10:57:46.651Z,29.77
2018-05-25T10:58:46.573Z,28.99
2018-05-25T10:59:46.493Z,28.15
2018-05-25T11:00:46.416Z,26.89
2018-05-25T11:01:46.329Z,28.04
2018-05-25T11:02:46.248Z,28.08
2018-05-25T11:03:46.182Z,27.11
2018-05-25T11:04:46.091Z,29.11
2018-05-25T11:05:46.001Z,31.10
2018-05-25T11:06:45.921Z,32.55
2018-05-25T11:07:45.844Z,33.56
2018-05-25T11:08:45.764Z,34.97
2018-05-25T11:09:45.685Z,36.15
2018-05-25T11:10:45.599Z,34.08
2018-05-25T11:11:45.517Z,32.42
2018-05-25T11:12:45.442Z,32.34
2018-05-25T11:13:45.361Z,33.48
2018-05-25T11:14:45.269Z,32.71
2018-05-25T11:15:45.191Z,32.16
2018-05-25T11:16:45.113Z,31.09
2018-05-25T11:17:45.023Z,30.63
2018-05-25T11:18:44.944Z,30.58
2018-05-25T11:19:44.865Z,28.64
2018-05-25T11:20:44.776Z,27.73
2018-05-25T11:21:44.709Z,28.59
2018-05-25T11:22:44.617Z,29.81
2018-05-25T11:23:44.541Z,31.22
2018-05-25T11:24:44.450Z,32.67
2018-05-25T11:25:44.372Z,33.33
2018-05-25T11:26:44.292Z,32.96
2018-05-25T11:27:44.215Z,32.32
2018-05-25T11:28:44.123Z,30.88
2018-05-25T11:29:44.052Z,30.00
2018-05-25T11:30:43.966Z,30.51
2018-05-25T11:31:43.876Z,30.87
2018-05-25T11:32:43.799Z,32.52
2018-05-25T11:33:43.707Z,32.40
2018-05-25T11:34:43.641Z,32.50
2018-05-25T11:35:43.550Z,32.60
2018-05-25T11:36:43.460Z,32.99
2018-05-25T11:37:43.382Z,32.71
2018-05-25T11:38:43.290Z,32.53
2018-05-25T11:39:43.212Z,32.03
2018-05-25T11:40:43.122Z,32.40
2018-05-25T11:41:43.043Z,33.56
2018-05-25T11:42:42.953Z,33.67
2018-05-25T11:43:42.863Z,33.26
2018-05-25T11:44:42.783Z,34.72
2018-05-25T11:45:42.692Z,34.63
2018-05-25T11:46:42.613Z,33.75
2018-05-25T11:47:42.526Z,34.52
2018-05-25T11:48:42.445Z,35.49
2018-05-25T11:49:42.354Z,35.00
2018-05-25T11:50:42.263Z,35.49
2018-05-25T11:51:42.185Z,35.57
2018-05-25T11:52:42.093Z,34.77
2018-05-25T11:53:42.038Z,35.05
2018-05-25T11:54:41.925Z,34.09
2018-05-25T11:55:41.838Z,33.25
2018-05-25T11:56:41.756Z,33.54
2018-05-25T11:57:41.916Z,34.40
2018-05-25T11:58:41.573Z,34.97
2018-05-25T11:59:41.495Z,34.95
2018-05-25T12:00:41.405Z,35.37
2018-05-25T12:01:41.313Z,34.80
2018-05-25T12:02:41.248Z,34.80
2018-05-25T12:03:41.146Z,35.21
2018-05-25T12:04:41.059Z,33.28
2018-05-25T12:05:40.978Z,33.46
2018-05-25T12:06:40.925Z,34.61
2018-05-25T12:07:40.807Z,35.49
2018-05-25T12:08:40.715Z,35.88
2018-05-25T12:09:40.626Z,34.90
2018-05-25T12:10:40.547Z,34.32
2018-05-25T12:11:40.455Z,33.93
2018-05-25T12:12:40.377Z,34.63
2018-05-25T12:13:40.287Z,34.61
2018-05-25T12:14:40.211Z,35.10
2018-05-25T12:15:40.117Z,35.10
2018-05-25T12:16:40.039Z,34.82
2018-05-25T12:17:39.949Z,34.70
2018-05-25T12:18:39.859Z,34.90
2018-05-25T12:19:39.778Z,35.10
2018-05-25T12:20:39.689Z,35.39
2018-05-25T12:21:39.611Z,35.60
2018-05-25T12:22:39.519Z,35.52
2018-05-25T12:23:39.441Z,34.74
2018-05-25T12:24:39.353Z,33.48
2018-05-25T12:25:39.272Z,33.36
2018-05-25T12:26:39.181Z,34.24
2018-05-25T12:27:39.091Z,33.65
2018-05-25T12:28:39.012Z,33.75
2018-05-25T12:29:38.921Z,33.34
2018-05-25T12:30:38.843Z,34.03
2018-05-25T12:31:38.758Z,35.19
2018-05-25T12:32:38.662Z,34.90
2018-05-25T12:33:38.596Z,34.80
2018-05-25T12:34:38.493Z,35.00
2018-05-25T12:35:38.413Z,34.59
2018-05-25T12:36:38.324Z,35.57
2018-05-25T12:37:38.236Z,34.69
2018-05-25T12:38:38.154Z,34.58
2018-05-25T12:39:38.065Z,34.77
2018-05-25T12:40:37.973Z,35.55
2018-05-25T12:41:37.895Z,34.98
2018-05-25T12:42:37.803Z,35.17
2018-05-25T12:43:37.716Z,34.98
2018-05-25T12:44:37.634Z,34.38
2018-05-25T12:45:37.542Z,34.36
2018-05-25T12:46:37.453Z,35.14
2018-05-25T12:47:37.375Z,35.82
2018-05-25T12:48:37.283Z,35.24
2018-05-25T12:49:37.193Z,35.33
2018-05-25T12:50:37.114Z,35.16
2018-05-25T12:51:37.023Z,34.58